Weather

DAILY 7 DAY TOTAL
onrain

Note: Some stations are located near irrigated fields and may also report irrigation

Alliston Mount Forest Blyth Guelph Grand Bend Strathroy Woodstock Belmont Simcoe Leamington Chatham West Lorne






Woodstock Outdoor FS - Historical Weather Data
Date Max Temp (°C) Min Temp (°C) Avg Temp (°C) Rain (mm) 7Day Rain(mm) Total Rain(mm) Avg RH (%)
5/27/2020 28.1 19.0 23.2 0.0 4.2 68.4 67.8
5/26/2020 30.5 16.7 24.2 0.0 4.2 68.4 70.1
5/25/2020 29.8 17.0 23.7 0.0 4.2 68.4 72.5
5/24/2020 26.7 13.6 20.7 0.0 23.8 68.4 78.9
5/23/2020 24.9 13.8 18.6 0.0 43.0 68.4 85.7
5/22/2020 24.7 7.7 16.5 4.2 43.0 68.4 68.6
5/21/2020 22.6 4.1 15.0 0.0 45.0 64.2 56.9
5/20/2020 19.3 7.0 13.7 0.0 49.0 64.2 55.8
5/19/2020 17.0 10.2 13.1 0.0 49.0 64.2 64.4
5/18/2020 12.9 10.1 11.0 19.6 49.0 64.2 95.7
5/17/2020 14.4 8.8 11.0 19.2 36.4 44.6 80.5
5/16/2020 19.7 6.3 12.8 0.0 18.8 25.4 81.5
5/15/2020 20.8 9.9 15.4 6.2 18.8 25.4 92.4
5/14/2020 13.3 2.9 9.0 4.0 12.6 19.2 73.2
5/13/2020 12.8 -3.4 5.1 0.0 8.6 15.2 60.5
5/12/2020 9.8 -2.0 3.7 0.0 8.6 15.2 64.2
5/11/2020 5.0 0.1 2.8 7.0 8.6 15.2 85.6
5/10/2020 12.3 -1.3 6.0 1.6 1.6 8.2 70.5
5/9/2020 5.5 -3.2 0.9 0.0 0.0 6.6 64.9
5/8/2020 4.5 -3.2 0.7 0.0 0.0 6.6 57.7
5/7/2020 14.2 -0.7 6.3 0.0 6.6 6.6 52.6
5/6/2020 13.6 2.6 7.5 0.0 17.4 6.6 46.7
5/5/2020 10.7 -1.1 5.2 0.0 22.4 6.6 54.1
5/4/2020 9.3 1.1 5.7 0.0 26.0 6.6 67.7
5/3/2020 19.7 8.0 14.2 0.0 26.0 6.6 63.6
5/2/2020 17.0 3.0 10.9 0.0 27.2 6.6 68.5
5/1/2020 15.2 5.8 9.6 6.6 27.2 6.6 81.0